Time;durP1;ratioP1;P1;durP2;ratioP2;P2;SDS_P1;SDS_P2;PMS_P1;PMS_P2;Temp;Humidity;BMP_temperature;BMP_pressure;BME280_temperature;BME280_humidity;BME280_pressure;Samples;Min_cycle;Max_cycle;Signal;HPM_P1;HPM_P2
2022/03/22 00:02:07;;;;;;;6.63;2.13;;;23.50;99.90;;;;;;5046887;28;20038;-67
2022/03/22 00:04:35;;;;;;;3.95;1.70;;;23.70;99.90;;;;;;5045016;28;20120;-67
2022/03/22 00:07:03;;;;;;;6.55;1.75;;;23.80;99.90;;;;;;5056738;28;20020;-67
2022/03/22 00:09:32;;;;;;;4.95;1.60;;;23.80;99.90;;;;;;5050579;28;20017;-67
2022/03/22 00:12:00;;;;;;;4.70;1.00;;;24.10;99.90;;;;;;5046877;28;20036;-67
2022/03/22 00:14:29;;;;;;;4.82;1.73;;;24.00;99.90;;;;;;5058726;28;20116;-67
2022/03/22 00:16:57;;;;;;;5.55;1.80;;;24.10;99.90;;;;;;5047953;28;20021;-68
2022/03/22 00:19:24;;;;;;;5.13;1.40;;;24.00;99.90;;;;;;5047560;28;20064;-68
2022/03/22 00:21:51;;;;;;;5.88;1.70;;;24.20;99.90;;;;;;5037457;28;20052;-68
2022/03/22 00:24:19;;;;;;;4.95;1.20;;;24.20;99.90;;;;;;5050051;28;20033;-68
2022/03/22 00:26:47;;;;;;;8.13;1.52;;;24.40;99.90;;;;;;5047777;28;20029;-67
2022/03/22 00:29:14;;;;;;;6.57;1.90;;;24.00;99.90;;;;;;5046554;28;20021;-67
2022/03/22 00:31:41;;;;;;;7.95;1.60;;;24.20;99.90;;;;;;5046673;28;20692;-67
2022/03/22 00:34:12;;;;;;;7.78;1.25;;;24.30;99.90;;;;;;5044577;28;20107;-68
2022/03/22 00:36:40;;;;;;;7.57;1.60;;;24.40;99.90;;;;;;5045043;28;20049;-68
2022/03/22 00:39:10;;;;;;;7.22;1.38;;;24.80;99.90;;;;;;5047996;28;20030;-67
2022/03/22 00:41:41;;;;;;;6.18;1.83;;;24.90;99.90;;;;;;5048623;28;20032;-68
2022/03/22 00:44:09;;;;;;;5.03;1.50;;;25.00;99.90;;;;;;5045704;28;20029;-67
2022/03/22 00:46:38;;;;;;;5.50;1.30;;;25.00;99.90;;;;;;5056475;28;20070;-68
2022/03/22 00:49:06;;;;;;;5.05;1.73;;;24.70;99.90;;;;;;5045273;28;20045;-68
2022/03/22 00:51:34;;;;;;;8.70;2.50;;;24.90;99.90;;;;;;5047625;28;20055;-67
2022/03/22 00:54:03;;;;;;;6.10;1.25;;;25.10;99.90;;;;;;5046226;28;20025;-68
2022/03/22 00:56:31;;;;;;;5.13;1.58;;;25.10;99.90;;;;;;5058925;28;20025;-67
2022/03/22 01:01:40;;;;;;;4.40;0.95;;;24.90;99.90;;;;;;5046729;28;20033;-67
2022/03/22 01:04:09;;;;;;;5.72;1.35;;;25.20;99.90;;;;;;5050252;28;20044;-67
2022/03/22 01:06:38;;;;;;;7.50;1.65;;;25.40;99.90;;;;;;5056207;28;20021;-68
2022/03/22 01:09:10;;;;;;;4.87;1.30;;;25.70;99.90;;;;;;5067139;28;20071;-68
2022/03/22 01:11:39;;;;;;;8.15;1.75;;;25.70;99.90;;;;;;5062507;28;20055;-68
2022/03/22 01:14:08;;;;;;;4.90;1.75;;;25.90;99.90;;;;;;5048584;28;20053;-68
2022/03/22 01:16:36;;;;;;;5.50;1.90;;;25.40;99.90;;;;;;5058149;28;20112;-68
2022/03/22 01:19:03;;;;;;;6.25;2.00;;;25.80;99.90;;;;;;5039220;28;20112;-68
2022/03/22 01:21:31;;;;;;;8.40;1.88;;;26.10;99.90;;;;;;5061269;28;20415;-68
2022/03/22 01:24:02;;;;;;;3.00;1.33;;;26.50;99.90;;;;;;5062282;28;20433;-68
2022/03/22 01:26:29;;;;;;;6.22;1.48;;;26.80;99.90;;;;;;5058119;28;20480;-68
2022/03/22 01:28:57;;;;;;;5.07;1.38;;;26.80;99.90;;;;;;5053798;28;20025;-68
2022/03/22 01:31:25;;;;;;;5.22;1.40;;;26.70;99.90;;;;;;5059281;28;20025;-68
2022/03/22 01:33:53;;;;;;;3.58;1.25;;;26.20;99.90;;;;;;5042950;28;20456;-68
2022/03/22 01:36:21;;;;;;;5.22;1.38;;;26.30;99.90;;;;;;5039481;28;20168;-68
2022/03/22 01:38:49;;;;;;;5.70;1.40;;;26.60;99.90;;;;;;5048968;28;20021;-67
2022/03/22 01:41:17;;;;;;;6.45;1.45;;;26.90;99.90;;;;;;5055245;28;20060;-68
2022/03/22 01:43:57;;;;;;;6.22;1.90;;;26.90;99.90;;;;;;5046646;28;20087;-68
2022/03/22 01:46:42;;;;;;;9.55;2.15;;;27.10;99.90;;;;;;5050923;28;20091;-68
2022/03/22 01:49:15;;;;;;;6.38;1.50;;;27.00;99.90;;;;;;5055202;28;20053;-68
2022/03/22 01:51:44;;;;;;;9.48;1.88;;;26.90;99.90;;;;;;5061871;28;20036;-68
2022/03/22 01:54:14;;;;;;;8.00;1.63;;;26.60;99.90;;;;;;5057728;28;20041;-68
2022/03/22 01:56:41;;;;;;;7.80;1.40;;;26.50;99.90;;;;;;5052289;28;20037;-68
2022/03/22 01:59:08;;;;;;;6.05;1.50;;;26.20;99.90;;;;;;5039284;28;20121;-68
2022/03/22 02:07:00;;;;;;;6.88;2.10;;;26.50;99.90;;;;;;5045243;28;20036;-68
2022/03/22 02:09:29;;;;;;;7.60;1.55;;;26.60;99.90;;;;;;5055202;28;20033;-68
2022/03/22 02:11:56;;;;;;;10.80;1.17;;;26.50;99.90;;;;;;5050624;28;20423;-68
2022/03/22 02:14:23;;;;;;;12.85;1.73;;;26.40;99.90;;;;;;5053630;28;20028;-68
2022/03/22 02:16:51;;;;;;;8.38;2.40;;;26.30;99.90;;;;;;5050803;28;20017;-68
2022/03/22 02:19:18;;;;;;;9.07;1.40;;;26.40;99.90;;;;;;5057741;28;20113;-68
2022/03/22 02:21:46;;;;;;;9.50;1.60;;;26.20;99.90;;;;;;5055375;28;20032;-67
2022/03/22 02:24:14;;;;;;;7.25;1.90;;;26.10;99.90;;;;;;5057562;28;20454;-67
2022/03/22 02:26:41;;;;;;;9.82;1.90;;;26.00;99.90;;;;;;5045160;28;20052;-67
2022/03/22 02:29:08;;;;;;;4.72;1.30;;;26.30;99.90;;;;;;5043733;28;20061;-67
2022/03/22 02:31:36;;;;;;;8.80;2.05;;;26.40;99.90;;;;;;5049743;28;20029;-67
2022/03/22 02:34:04;;;;;;;8.25;1.25;;;26.40;99.90;;;;;;5050556;28;20057;-67
2022/03/22 02:36:31;;;;;;;11.70;1.50;;;26.40;99.90;;;;;;5046534;28;20521;-68
2022/03/22 02:39:02;;;;;;;4.70;1.05;;;26.20;99.90;;;;;;5051454;28;20029;-67
2022/03/22 02:41:29;;;;;;;10.10;1.13;;;26.20;99.90;;;;;;5046401;28;20037;-67
2022/03/22 02:43:57;;;;;;;8.55;1.77;;;26.20;99.90;;;;;;5054791;28;20116;-67
2022/03/22 02:46:24;;;;;;;8.00;1.45;;;26.30;99.90;;;;;;5052131;28;20025;-66
2022/03/22 02:48:52;;;;;;;7.53;1.50;;;26.70;99.90;;;;;;5063389;28;20041;-67
2022/03/22 02:51:19;;;;;;;6.68;1.73;;;26.30;99.90;;;;;;5049943;28;20068;-67
2022/03/22 02:53:47;;;;;;;6.82;1.35;;;26.10;99.90;;;;;;5051575;28;20068;-68
2022/03/22 02:56:14;;;;;;;6.68;1.45;;;26.10;99.90;;;;;;5065535;28;20105;-68
2022/03/22 02:58:41;;;;;;;8.70;1.27;;;26.10;99.90;;;;;;5054075;28;20434;-68
2022/03/22 03:01:10;;;;;;;5.18;1.10;;;26.10;99.90;;;;;;5063690;28;20480;-67
2022/03/22 03:03:37;;;;;;;4.95;1.42;;;26.00;99.90;;;;;;5051782;28;20049;-68
2022/03/22 03:06:06;;;;;;;9.35;1.67;;;25.80;99.90;;;;;;5048031;28;20078;-68
2022/03/22 03:08:33;;;;;;;12.43;1.88;;;26.00;99.90;;;;;;5059847;28;20387;-68
2022/03/22 03:11:01;;;;;;;6.25;1.35;;;26.10;99.90;;;;;;5035771;28;20047;-69
2022/03/22 03:14:38;;;;;;;7.80;1.92;;;25.90;99.90;;;;;;5053244;28;20044;-69
2022/03/22 03:16:15;;;;;;;5.50;1.10;;;25.90;99.90;;;;;;5051314;28;20036;-70
2022/03/22 03:18:43;;;;;;;6.72;1.10;;;25.70;99.90;;;;;;5039179;28;20482;-68
2022/03/22 03:21:11;;;;;;;7.28;1.83;;;25.60;99.90;;;;;;5052197;28;20032;-68
2022/03/22 03:23:38;;;;;;;9.20;1.20;;;25.70;99.90;;;;;;5046200;28;20048;-68
2022/03/22 03:26:05;;;;;;;6.32;1.13;;;25.80;99.90;;;;;;5039973;28;20037;-67
2022/03/22 03:28:33;;;;;;;9.32;1.45;;;25.80;99.90;;;;;;5040141;28;20547;-68
2022/03/22 03:31:00;;;;;;;6.35;1.33;;;26.00;99.90;;;;;;5047327;28;20043;-69
2022/03/22 03:33:28;;;;;;;8.70;1.85;;;25.90;99.90;;;;;;5040536;28;20130;-68
2022/03/22 03:35:56;;;;;;;5.05;1.25;;;26.00;99.90;;;;;;5048243;28;20104;-68
2022/03/22 03:38:23;;;;;;;8.25;1.73;;;25.90;99.90;;;;;;5042592;28;20025;-68
2022/03/22 03:43:36;;;;;;;10.02;2.00;;;25.90;99.90;;;;;;5058109;28;20043;-66
2022/03/22 03:48:49;;;;;;;6.13;1.02;;;25.50;99.90;;;;;;5062219;28;20073;-67
2022/03/22 03:51:16;;;;;;;8.27;1.38;;;25.70;99.90;;;;;;5062867;28;20037;-67
2022/03/22 03:53:43;;;;;;;7.78;1.98;;;25.60;99.90;;;;;;5054740;28;20029;-66
2022/03/22 03:56:10;;;;;;;9.27;2.03;;;25.80;99.90;;;;;;5065857;28;20073;-67
2022/03/22 03:58:38;;;;;;;7.88;1.98;;;25.70;99.90;;;;;;5066374;28;20037;-67
2022/03/22 04:01:05;;;;;;;8.20;1.83;;;25.60;99.90;;;;;;5063645;28;20085;-67
2022/03/22 04:03:33;;;;;;;8.13;1.38;;;25.70;99.90;;;;;;5065087;28;20037;-67
2022/03/22 04:06:00;;;;;;;4.57;1.70;;;25.70;99.90;;;;;;5066957;28;20036;-67
2022/03/22 04:08:27;;;;;;;9.10;1.40;;;25.80;99.90;;;;;;5065831;28;20040;-67
2022/03/22 04:10:54;;;;;;;12.18;1.83;;;26.00;99.90;;;;;;5066259;28;20077;-67
2022/03/22 04:13:22;;;;;;;6.30;1.08;;;26.00;99.90;;;;;;5066539;28;20423;-67
2022/03/22 04:15:50;;;;;;;6.95;1.30;;;26.10;99.90;;;;;;5067192;28;20056;-67
2022/03/22 04:18:17;;;;;;;6.40;1.40;;;26.20;99.90;;;;;;5064563;28;20068;-67
2022/03/22 04:20:47;;;;;;;9.40;1.50;;;26.20;99.90;;;;;;5060768;28;20037;-67
2022/03/22 04:23:15;;;;;;;10.48;1.88;;;26.20;99.90;;;;;;5070800;28;20021;-67
2022/03/22 04:25:42;;;;;;;10.10;1.85;;;26.30;99.90;;;;;;5061172;28;20107;-67
2022/03/22 04:33:40;;;;;;;16.58;2.58;;;26.20;99.90;;;;;;5047683;28;20055;-68
2022/03/22 04:36:07;;;;;;;8.15;1.50;;;26.20;99.90;;;;;;5036843;28;20037;-68
2022/03/22 04:38:34;;;;;;;9.77;2.20;;;26.30;99.90;;;;;;5043909;28;20103;-68
2022/03/22 04:41:02;;;;;;;7.50;2.08;;;26.30;99.90;;;;;;5046172;28;20029;-67
2022/03/22 04:43:29;;;;;;;7.85;1.35;;;26.30;99.90;;;;;;5045705;28;20492;-68
2022/03/22 04:45:56;;;;;;;7.40;1.42;;;26.30;99.90;;;;;;5051544;28;20053;-68
2022/03/22 04:48:23;;;;;;;10.63;1.77;;;26.20;99.90;;;;;;5048046;28;20059;-68
2022/03/22 04:56:43;;;;;;;9.73;2.08;;;26.20;99.90;;;;;;5053741;28;20021;-67
2022/03/22 04:59:08;;;;;;;10.23;2.25;;;26.10;99.90;;;;;;5047011;28;20044;-68
2022/03/22 05:01:35;;;;;;;11.90;2.17;;;26.10;99.90;;;;;;5048794;28;20025;-68
2022/03/22 05:04:03;;;;;;;10.40;1.98;;;26.20;99.90;;;;;;5063357;28;20021;-68
2022/03/22 05:06:35;;;;;;;6.88;1.85;;;26.20;99.90;;;;;;5055199;28;20078;-68
2022/03/22 05:09:04;;;;;;;9.88;2.00;;;26.20;99.90;;;;;;5050367;28;20026;-68
2022/03/22 05:11:31;;;;;;;9.75;2.35;;;26.30;99.90;;;;;;5042571;28;20039;-68
2022/03/22 05:14:00;;;;;;;10.15;2.67;;;26.30;99.90;;;;;;5042355;28;20025;-68
2022/03/22 05:16:29;;;;;;;9.23;2.22;;;26.20;99.90;;;;;;5044832;28;20043;-68
2022/03/22 05:18:57;;;;;;;7.38;1.92;;;26.00;99.90;;;;;;5045542;28;20029;-68
2022/03/22 05:21:26;;;;;;;10.30;2.45;;;26.00;99.90;;;;;;5044256;28;20068;-68
2022/03/22 05:23:54;;;;;;;8.90;2.17;;;26.00;99.90;;;;;;5034974;28;20029;-67
2022/03/22 05:26:22;;;;;;;4.07;1.80;;;26.00;99.90;;;;;;5066378;28;20508;-68
2022/03/22 05:28:49;;;;;;;10.95;1.85;;;26.00;99.90;;;;;;5045072;28;20017;-67
2022/03/22 05:31:16;;;;;;;7.82;2.20;;;26.00;99.90;;;;;;5043870;28;20051;-68
2022/03/22 05:33:44;;;;;;;10.52;2.05;;;25.90;99.90;;;;;;5043892;28;20043;-67
2022/03/22 05:36:11;;;;;;;7.75;1.98;;;25.90;99.90;;;;;;5045547;28;20025;-69
2022/03/22 05:38:38;;;;;;;11.55;2.35;;;25.90;99.90;;;;;;5054382;28;20027;-70
2022/03/22 05:41:07;;;;;;;7.00;1.70;;;26.00;99.90;;;;;;5048882;28;20532;-67
2022/03/22 05:43:35;;;;;;;8.30;1.98;;;26.00;99.90;;;;;;5047272;28;20475;-67
2022/03/22 05:46:04;;;;;;;9.95;1.88;;;25.90;99.90;;;;;;5052976;28;20104;-67
2022/03/22 05:48:31;;;;;;;8.13;2.40;;;25.90;99.90;;;;;;5047821;28;20041;-68
2022/03/22 05:50:58;;;;;;;8.10;2.13;;;25.90;99.90;;;;;;5045789;28;20118;-68
2022/03/22 05:53:26;;;;;;;6.05;2.13;;;25.90;99.90;;;;;;5043645;28;20030;-68
2022/03/22 05:55:53;;;;;;;9.98;2.45;;;25.90;99.90;;;;;;5051612;28;20082;-67
2022/03/22 05:58:20;;;;;;;8.80;2.20;;;25.90;99.90;;;;;;5051008;28;20067;-68
2022/03/22 06:00:47;;;;;;;7.53;2.00;;;25.80;99.90;;;;;;5044759;28;20029;-68
2022/03/22 06:03:15;;;;;;;5.60;2.10;;;25.80;99.90;;;;;;5046489;28;20013;-69
2022/03/22 06:05:43;;;;;;;10.57;2.75;;;25.70;99.90;;;;;;5050530;28;20018;-68
2022/03/22 06:08:11;;;;;;;8.10;2.10;;;25.70;99.90;;;;;;5046883;28;20032;-68
2022/03/22 06:10:38;;;;;;;5.68;1.52;;;25.70;99.90;;;;;;5046218;28;20033;-68
2022/03/22 06:13:05;;;;;;;6.88;1.85;;;25.70;99.90;;;;;;5043029;28;20112;-68
2022/03/22 06:15:34;;;;;;;6.18;1.98;;;25.70;99.90;;;;;;5045172;28;20386;-68
2022/03/22 06:18:10;;;;;;;8.48;2.20;;;25.60;99.90;;;;;;5046809;28;20025;-69
2022/03/22 06:20:41;;;;;;;7.25;2.25;;;25.50;99.90;;;;;;5054865;28;20150;-68
2022/03/22 06:23:10;;;;;;;7.45;1.55;;;25.50;99.90;;;;;;5044810;28;20533;-68
2022/03/22 06:25:38;;;;;;;9.43;2.00;;;25.40;99.90;;;;;;5047324;28;20036;-67
2022/03/22 06:28:10;;;;;;;7.18;2.20;;;25.40;99.90;;;;;;5050357;28;20025;-67
2022/03/22 06:30:38;;;;;;;6.20;2.25;;;25.50;99.90;;;;;;5049624;28;20029;-68
2022/03/22 06:33:11;;;;;;;9.10;2.20;;;25.50;99.90;;;;;;5042975;28;20088;-67
2022/03/22 06:35:39;;;;;;;8.55;1.90;;;25.40;99.90;;;;;;5049113;28;20578;-66
2022/03/22 06:38:07;;;;;;;6.45;2.25;;;25.30;99.90;;;;;;5055304;28;20051;-66
2022/03/22 06:40:34;;;;;;;7.28;2.17;;;25.20;99.90;;;;;;5050851;28;20032;-66
2022/03/22 06:43:04;;;;;;;6.85;2.42;;;25.20;99.90;;;;;;5037776;28;20072;-67
2022/03/22 06:45:31;;;;;;;7.45;2.10;;;25.10;99.90;;;;;;5047551;28;20024;-66
2022/03/22 06:48:00;;;;;;;7.80;2.20;;;25.20;99.90;;;;;;5046236;28;20024;-67
2022/03/22 06:50:27;;;;;;;10.25;2.60;;;25.10;99.90;;;;;;5044547;28;20074;-66
2022/03/22 06:52:55;;;;;;;8.27;1.95;;;25.10;99.90;;;;;;5044589;28;20039;-67
2022/03/22 06:55:25;;;;;;;7.72;2.10;;;25.00;99.90;;;;;;5051022;28;20101;-67
2022/03/22 06:57:52;;;;;;;10.02;1.98;;;24.90;99.90;;;;;;5050452;28;20025;-67
2022/03/22 07:00:21;;;;;;;8.18;2.70;;;24.90;99.90;;;;;;5045791;28;20021;-66
2022/03/22 07:02:51;;;;;;;9.10;2.33;;;24.70;99.90;;;;;;5041597;28;20033;-66
2022/03/22 07:05:18;;;;;;;9.80;1.98;;;24.70;99.90;;;;;;5045268;28;20384;-67
2022/03/22 07:07:46;;;;;;;10.63;1.92;;;24.60;99.90;;;;;;5039816;28;20639;-67
2022/03/22 07:10:15;;;;;;;8.20;2.20;;;24.60;99.90;;;;;;5046160;28;20076;-67
2022/03/22 07:12:54;;;;;;;12.45;2.40;;;24.60;99.90;;;;;;5051562;28;20099;-67
2022/03/22 07:15:26;;;;;;;10.63;2.80;;;24.60;99.90;;;;;;5054121;28;20450;-66
2022/03/22 07:17:54;;;;;;;5.65;2.78;;;24.60;99.90;;;;;;5050374;28;20025;-66
2022/03/22 07:20:23;;;;;;;8.50;2.47;;;24.70;99.90;;;;;;5053868;28;20021;-66
2022/03/22 07:22:50;;;;;;;6.75;2.13;;;24.70;99.90;;;;;;5044624;28;20031;-67
2022/03/22 07:25:18;;;;;;;10.32;2.50;;;25.00;99.90;;;;;;5046150;28;20029;-67
2022/03/22 07:27:47;;;;;;;9.32;2.30;;;25.30;99.90;;;;;;5050884;28;20025;-67
2022/03/22 07:30:15;;;;;;;13.98;2.40;;;25.60;99.90;;;;;;5045262;28;20463;-67
2022/03/22 07:32:43;;;;;;;4.28;1.80;;;25.10;99.90;;;;;;5045018;28;20032;-67
2022/03/22 07:35:12;;;;;;;6.63;2.15;;;24.80;99.90;;;;;;5064691;28;20491;-67
2022/03/22 07:37:40;;;;;;;15.25;1.85;;;24.60;99.90;;;;;;5039272;28;20417;-67
2022/03/22 07:40:12;;;;;;;9.05;2.22;;;24.40;99.90;;;;;;5047174;28;20098;-67
2022/03/22 07:42:39;;;;;;;9.65;2.75;;;24.30;99.90;;;;;;5035586;28;20571;-68
2022/03/22 07:45:09;;;;;;;10.27;2.30;;;24.20;99.90;;;;;;5052922;28;20020;-68
2022/03/22 07:47:37;;;;;;;10.75;2.20;;;24.20;99.90;;;;;;5042170;28;20025;-68
2022/03/22 07:53:06;;;;;;;13.27;3.05;;;24.10;99.90;;;;;;5047508;28;20074;-67
2022/03/22 07:55:41;;;;;;;7.75;2.42;;;24.00;99.90;;;;;;5048502;28;20159;-68
2022/03/22 07:58:09;;;;;;;8.43;2.35;;;24.00;99.90;;;;;;5045041;28;20021;-67
2022/03/22 08:00:39;;;;;;;9.43;3.50;;;23.90;99.90;;;;;;5051970;28;20021;-67
2022/03/22 08:03:09;;;;;;;5.95;1.95;;;23.80;99.90;;;;;;5046407;28;20013;-67
2022/03/22 08:05:37;;;;;;;14.93;3.55;;;23.80;99.90;;;;;;5046487;28;20107;-67
2022/03/22 08:08:05;;;;;;;9.50;2.85;;;23.80;99.90;;;;;;5059757;28;20029;-67
2022/03/22 08:10:32;;;;;;;9.95;2.92;;;23.80;99.90;;;;;;5048157;28;20021;-68
2022/03/22 08:13:06;;;;;;;9.90;2.90;;;23.70;99.90;;;;;;5052521;28;20029;-67
2022/03/22 08:15:33;;;;;;;11.77;3.55;;;23.70;99.90;;;;;;5041310;28;20029;-68
2022/03/22 08:18:01;;;;;;;11.73;3.58;;;23.60;99.90;;;;;;5037473;28;20025;-67
2022/03/22 08:20:30;;;;;;;9.43;3.00;;;23.60;99.90;;;;;;5047690;28;20032;-67
2022/03/22 08:23:04;;;;;;;12.05;3.28;;;23.60;99.90;;;;;;5048268;28;20040;-67
2022/03/22 08:25:36;;;;;;;7.03;2.20;;;23.50;99.90;;;;;;5043662;28;20040;-67
2022/03/22 08:28:09;;;;;;;19.88;3.65;;;23.50;99.90;;;;;;5050893;28;20024;-68
2022/03/22 08:30:38;;;;;;;11.45;2.80;;;23.50;99.90;;;;;;5054890;28;20480;-67
2022/03/22 08:33:07;;;;;;;11.88;2.83;;;23.40;99.90;;;;;;5050212;28;20047;-67
2022/03/22 08:35:36;;;;;;;9.40;3.58;;;23.40;99.90;;;;;;5046890;28;20421;-67
2022/03/22 08:38:03;;;;;;;9.90;2.80;;;23.40;99.90;;;;;;5042754;28;20028;-67
2022/03/22 08:40:31;;;;;;;14.27;3.03;;;23.40;99.90;;;;;;5045254;28;20025;-67
2022/03/22 08:42:59;;;;;;;16.58;3.60;;;23.30;99.90;;;;;;5050093;28;20032;-67
2022/03/22 08:45:27;;;;;;;14.23;4.15;;;23.30;99.90;;;;;;5056336;28;20025;-67
2022/03/22 08:47:56;;;;;;;11.38;4.40;;;23.30;99.90;;;;;;5052418;28;20362;-68
2022/03/22 08:50:25;;;;;;;15.75;5.38;;;23.30;99.90;;;;;;5044648;28;20077;-67
2022/03/22 08:52:54;;;;;;;11.32;3.00;;;23.30;99.90;;;;;;5048220;28;20030;-67
2022/03/22 08:55:23;;;;;;;12.20;3.28;;;23.20;99.90;;;;;;5048616;28;20021;-67
2022/03/22 08:57:51;;;;;;;16.15;3.78;;;23.20;99.90;;;;;;5042030;28;20044;-67
2022/03/22 09:00:19;;;;;;;11.68;3.75;;;23.20;99.90;;;;;;5044065;28;20036;-68
2022/03/22 09:02:51;;;;;;;10.05;2.95;;;23.20;99.90;;;;;;5044296;28;20083;-66
2022/03/22 09:08:06;;;;;;;12.90;3.33;;;23.10;99.90;;;;;;5050111;28;20085;-66
2022/03/22 09:10:34;;;;;;;14.50;3.83;;;23.10;99.90;;;;;;5053161;28;20085;-66
2022/03/22 09:13:02;;;;;;;9.75;2.95;;;23.10;99.90;;;;;;5052663;28;20566;-66
2022/03/22 09:15:30;;;;;;;13.02;3.10;;;23.10;99.90;;;;;;5050232;28;20021;-66
2022/03/22 09:17:58;;;;;;;13.45;3.60;;;23.00;99.90;;;;;;5051622;28;20029;-66
2022/03/22 09:20:31;;;;;;;10.10;2.70;;;23.00;99.90;;;;;;5050465;28;20024;-66
2022/03/22 09:23:00;;;;;;;9.25;2.22;;;23.00;99.90;;;;;;5049766;28;20120;-66
2022/03/22 09:25:30;;;;;;;12.75;3.58;;;22.90;99.90;;;;;;5048819;28;20511;-66
2022/03/22 09:28:00;;;;;;;11.63;2.50;;;22.90;99.90;;;;;;5057425;28;20119;-66
2022/03/22 09:30:28;;;;;;;10.57;3.20;;;22.90;99.90;;;;;;5047492;28;20037;-66
2022/03/22 09:32:57;;;;;;;11.70;3.22;;;22.90;99.90;;;;;;5055086;28;20078;-67
2022/03/22 09:35:25;;;;;;;16.20;3.25;;;22.90;99.90;;;;;;5052647;28;20055;-66
2022/03/22 09:37:52;;;;;;;15.82;2.85;;;22.80;99.90;;;;;;5051672;28;20028;-66
2022/03/22 09:40:22;;;;;;;11.38;2.30;;;22.80;99.90;;;;;;5054604;28;20029;-66
2022/03/22 09:42:49;;;;;;;15.75;3.35;;;22.80;99.90;;;;;;5054034;28;20037;-67
2022/03/22 09:45:19;;;;;;;13.23;3.70;;;22.80;99.90;;;;;;5051063;28;20036;-67
2022/03/22 09:47:51;;;;;;;11.35;2.53;;;22.80;99.90;;;;;;5065049;28;20021;-66
2022/03/22 09:50:20;;;;;;;11.70;3.33;;;22.80;99.90;;;;;;5051994;28;20508;-67
2022/03/22 09:52:47;;;;;;;10.30;2.75;;;22.80;99.90;;;;;;5052466;28;20036;-66
2022/03/22 09:55:18;;;;;;;12.35;2.70;;;22.80;99.90;;;;;;5054884;28;20020;-66
2022/03/22 09:57:45;;;;;;;17.70;3.33;;;22.70;99.90;;;;;;5055129;28;20017;-66
2022/03/22 10:00:15;;;;;;;12.73;2.35;;;22.70;99.90;;;;;;5051594;28;20025;-66
2022/03/22 10:02:43;;;;;;;11.45;2.75;;;22.70;99.90;;;;;;5052312;28;20029;-66
2022/03/22 10:05:22;;;;;;;10.80;2.42;;;22.70;99.90;;;;;;5049781;28;20032;-66
2022/03/22 10:08:16;;;;;;;9.20;2.70;;;22.70;99.90;;;;;;5050532;28;20083;-66
2022/03/22 10:11:03;;;;;;;8.45;2.20;;;22.70;99.90;;;;;;5052264;28;20045;-66
2022/03/22 10:13:33;;;;;;;10.25;2.10;;;22.70;99.90;;;;;;5054025;28;20519;-66
2022/03/22 10:16:05;;;;;;;11.05;2.85;;;22.70;99.90;;;;;;5058700;28;20043;-67
2022/03/22 10:18:41;;;;;;;7.95;3.03;;;22.70;99.90;;;;;;5053094;28;20507;-66
2022/03/22 10:21:08;;;;;;;10.20;2.22;;;22.60;99.90;;;;;;5051059;28;20550;-66
2022/03/22 10:23:52;;;;;;;7.75;2.45;;;22.60;99.90;;;;;;5054003;28;20044;-67
2022/03/22 10:26:21;;;;;;;9.88;2.80;;;22.60;99.90;;;;;;5054631;28;20108;-66
2022/03/22 10:28:56;;;;;;;9.30;3.13;;;22.60;99.90;;;;;;5052720;28;20091;-66
2022/03/22 10:31:40;;;;;;;16.85;4.18;;;22.60;99.90;;;;;;5055833;28;20086;-67
2022/03/22 10:34:09;;;;;;;11.05;2.75;;;22.60;99.90;;;;;;5046279;28;20044;-66
2022/03/22 10:36:37;;;;;;;9.00;2.00;;;22.50;99.90;;;;;;5049630;28;20369;-66
2022/03/22 10:39:10;;;;;;;10.50;2.53;;;22.50;99.90;;;;;;5043670;28;20032;-69
2022/03/22 10:41:44;;;;;;;12.05;3.28;;;22.50;99.90;;;;;;5047201;28;20119;-68
2022/03/22 10:44:14;;;;;;;10.25;2.75;;;22.50;99.90;;;;;;5047249;28;20017;-69
2022/03/22 10:46:45;;;;;;;8.38;2.30;;;22.50;99.90;;;;;;5044754;28;20514;-69
2022/03/22 10:49:18;;;;;;;12.77;2.83;;;22.50;99.90;;;;;;5048012;28;20041;-67
2022/03/22 10:51:48;;;;;;;9.13;2.58;;;22.50;99.90;;;;;;5045940;28;20025;-69
2022/03/22 10:54:18;;;;;;;7.93;2.83;;;22.50;99.90;;;;;;5045000;28;20393;-68
2022/03/22 10:56:54;;;;;;;8.85;2.33;;;22.50;99.90;;;;;;5051122;28;20025;-69
2022/03/22 10:59:24;;;;;;;15.40;3.72;;;22.40;99.90;;;;;;5048081;28;20017;-68
2022/03/22 11:01:52;;;;;;;11.70;2.45;;;22.40;99.90;;;;;;5045260;28;20107;-69
2022/03/22 11:04:20;;;;;;;11.52;2.47;;;22.40;99.90;;;;;;5048120;28;20032;-68
2022/03/22 11:06:48;;;;;;;13.65;3.22;;;22.40;99.90;;;;;;5047080;28;20028;-68
2022/03/22 11:09:17;;;;;;;8.05;2.30;;;22.40;99.90;;;;;;5046999;28;20024;-68
2022/03/22 11:11:45;;;;;;;10.05;2.50;;;22.30;99.90;;;;;;5043023;28;20021;-67
2022/03/22 11:14:15;;;;;;;9.75;2.80;;;22.30;99.90;;;;;;5046096;28;20021;-67
2022/03/22 11:16:48;;;;;;;9.73;2.55;;;22.30;99.90;;;;;;5043619;28;20035;-67
2022/03/22 11:19:17;;;;;;;10.88;3.47;;;22.30;99.90;;;;;;5041081;28;20560;-67
2022/03/22 11:21:48;;;;;;;7.35;2.67;;;22.30;99.90;;;;;;5043347;28;20049;-68
2022/03/22 11:24:22;;;;;;;9.00;2.35;;;22.30;99.90;;;;;;5044716;28;20023;-67
2022/03/22 11:26:55;;;;;;;8.70;2.42;;;22.20;99.90;;;;;;5046183;28;20021;-67
2022/03/22 11:29:27;;;;;;;9.95;3.00;;;22.20;99.90;;;;;;5047146;28;20091;-68
2022/03/22 11:34:41;;;;;;;10.82;2.20;;;22.20;99.90;;;;;;5047195;28;20036;-68
2022/03/22 11:37:09;;;;;;;11.07;2.17;;;22.20;99.90;;;;;;5044535;28;20040;-68
2022/03/22 11:42:24;;;;;;;9.60;2.35;;;22.20;99.90;;;;;;5047347;28;20052;-68
2022/03/22 11:45:03;;;;;;;7.45;2.08;;;22.20;99.90;;;;;;5046091;28;20017;-68
2022/03/22 11:47:42;;;;;;;13.70;2.72;;;22.20;99.90;;;;;;5039791;28;20025;-68
2022/03/22 11:50:13;;;;;;;8.43;2.95;;;22.20;99.90;;;;;;5044233;28;20481;-68
2022/03/22 11:52:41;;;;;;;9.23;2.45;;;22.20;99.90;;;;;;5042745;28;20021;-67
2022/03/22 11:55:25;;;;;;;7.55;1.95;;;22.20;99.90;;;;;;5045811;28;20538;-67
2022/03/22 11:57:52;;;;;;;10.93;2.63;;;22.10;99.90;;;;;;5044501;28;20124;-67
2022/03/22 12:00:22;;;;;;;7.93;2.30;;;22.10;99.90;;;;;;5046699;28;20429;-67
2022/03/22 12:02:55;;;;;;;6.97;3.25;;;22.10;99.90;;;;;;5044039;28;20036;-68
2022/03/22 12:05:24;;;;;;;7.53;2.20;;;22.10;99.90;;;;;;5041472;28;20025;-68
2022/03/22 12:07:52;;;;;;;11.80;2.88;;;22.10;99.90;;;;;;5044455;28;20024;-67
2022/03/22 12:10:21;;;;;;;5.22;2.30;;;22.00;99.90;;;;;;5045169;28;20025;-68
2022/03/22 12:12:50;;;;;;;9.70;2.45;;;22.10;99.90;;;;;;5043435;28;20033;-68
2022/03/22 12:15:19;;;;;;;5.85;2.22;;;22.10;99.90;;;;;;5037308;28;20488;-67
2022/03/22 12:17:47;;;;;;;7.85;2.67;;;22.10;99.90;;;;;;5043398;28;20035;-67
2022/03/22 12:20:16;;;;;;;5.95;2.25;;;22.10;99.90;;;;;;5042088;28;20374;-68
2022/03/22 12:22:56;;;;;;;7.07;2.25;;;22.10;99.90;;;;;;5040256;28;20041;-68
2022/03/22 12:25:25;;;;;;;12.00;2.75;;;22.10;99.90;;;;;;5044525;28;20030;-68
2022/03/22 12:27:59;;;;;;;8.82;2.70;;;22.10;99.90;;;;;;5044794;28;20445;-68
2022/03/22 12:30:32;;;;;;;6.88;2.40;;;22.10;99.90;;;;;;5043912;28;20473;-68
2022/03/22 12:33:07;;;;;;;7.57;2.95;;;22.10;99.90;;;;;;5040964;28;20120;-67
2022/03/22 12:35:36;;;;;;;5.40;2.25;;;22.10;99.90;;;;;;5039454;28;20021;-68
2022/03/22 12:38:04;;;;;;;7.68;2.13;;;22.20;99.90;;;;;;5040669;28;20104;-68
2022/03/22 12:40:32;;;;;;;6.53;2.03;;;22.10;99.90;;;;;;5040494;28;20057;-68
2022/03/22 12:43:00;;;;;;;8.85;2.80;;;22.10;99.90;;;;;;5045161;28;20063;-68
2022/03/22 12:45:29;;;;;;;9.93;2.50;;;22.10;99.90;;;;;;5041244;28;20068;-68
2022/03/22 12:47:57;;;;;;;8.07;2.03;;;22.10;99.90;;;;;;5046470;28;20020;-68
2022/03/22 12:50:27;;;;;;;9.13;2.67;;;22.10;99.90;;;;;;5043595;28;20047;-68
2022/03/22 12:52:55;;;;;;;6.47;2.38;;;22.20;99.90;;;;;;5045104;28;20040;-68
2022/03/22 12:55:25;;;;;;;8.48;2.28;;;22.20;99.90;;;;;;5045556;28;20071;-68
2022/03/22 12:57:56;;;;;;;5.80;2.45;;;22.20;99.90;;;;;;5037617;28;20029;-68
2022/03/22 13:00:28;;;;;;;5.32;1.83;;;22.20;99.90;;;;;;5047025;28;20021;-68
2022/03/22 13:02:56;;;;;;;5.85;2.50;;;22.20;99.90;;;;;;5042691;28;20092;-68
2022/03/22 13:05:26;;;;;;;7.68;2.10;;;22.20;99.90;;;;;;5047598;28;20025;-68
2022/03/22 13:07:54;;;;;;;5.78;2.20;;;22.10;99.90;;;;;;5045135;28;20021;-68
2022/03/22 13:13:18;;;;;;;5.45;2.08;;;22.10;99.90;;;;;;5047081;28;20067;-67
2022/03/22 13:15:52;;;;;;;4.20;2.17;;;22.00;99.90;;;;;;5064651;28;20150;-68
2022/03/22 13:18:22;;;;;;;5.78;2.53;;;22.00;99.90;;;;;;5046320;28;20823;-68
2022/03/22 13:20:49;;;;;;;5.57;2.90;;;22.00;99.90;;;;;;5048058;28;20037;-67
2022/03/22 13:23:18;;;;;;;7.75;2.50;;;22.00;99.90;;;;;;5048437;28;20533;-68
2022/03/22 13:25:46;;;;;;;6.95;1.80;;;22.00;99.90;;;;;;5047164;28;20488;-68
2022/03/22 13:28:16;;;;;;;5.88;3.17;;;21.90;99.90;;;;;;5049328;28;20028;-68
2022/03/22 13:30:48;;;;;;;9.23;2.53;;;21.90;99.90;;;;;;5050134;28;20024;-67
2022/03/22 13:33:17;;;;;;;8.18;2.95;;;21.80;99.90;;;;;;5048642;28;20029;-67